createdAt,value
2019-04-16T00:00:29.455Z,8.33
2019-04-16T00:02:58.091Z,8.23
2019-04-16T00:05:34.056Z,8.40
2019-04-16T00:08:27.254Z,8.67
2019-04-16T00:11:16.213Z,8.33
2019-04-16T00:14:13.146Z,8.57
2019-04-16T00:16:44.632Z,7.63
2019-04-16T00:19:12.075Z,7.80
2019-04-16T00:22:02.759Z,8.20
2019-04-16T00:24:34.361Z,7.53
2019-04-16T00:27:02.977Z,7.93
2019-04-16T00:29:33.024Z,8.40
2019-04-16T00:32:07.882Z,7.80
2019-04-16T00:34:34.662Z,7.23
2019-04-16T00:37:03.315Z,8.30
2019-04-16T00:39:31.881Z,7.60
2019-04-16T00:42:00.379Z,7.67
2019-04-16T00:44:29.112Z,8.83
2019-04-16T00:46:57.605Z,8.07
2019-04-16T00:49:27.106Z,8.13
2019-04-16T00:51:55.988Z,8.30
2019-04-16T00:54:24.632Z,8.30
2019-04-16T00:56:53.170Z,8.33
2019-04-16T00:59:24.278Z,7.83
2019-04-16T01:01:52.197Z,8.57
2019-04-16T01:04:20.973Z,8.50
2019-04-16T01:06:49.587Z,8.90
2019-04-16T01:09:18.403Z,8.50
2019-04-16T01:11:49.040Z,9.10
2019-04-16T01:14:17.424Z,8.33
2019-04-16T01:16:45.977Z,9.30
2019-04-16T01:19:14.401Z,8.40
2019-04-16T01:21:44.797Z,9.27
2019-04-16T01:24:13.555Z,9.07
2019-04-16T01:26:42.058Z,9.13
2019-04-16T01:29:11.963Z,10.07
2019-04-16T01:31:58.967Z,9.30
2019-04-16T01:34:49.461Z,8.60
2019-04-16T01:37:49.689Z,8.83
2019-04-16T01:40:23.383Z,8.70
2019-04-16T01:42:54.426Z,8.93
2019-04-16T01:45:22.289Z,8.87
2019-04-16T01:47:50.880Z,8.90
2019-04-16T01:50:19.503Z,8.60
2019-04-16T01:52:50.293Z,8.90
2019-04-16T01:55:18.562Z,8.63
2019-04-16T01:57:47.263Z,9.30
2019-04-16T02:00:15.808Z,8.40
2019-04-16T02:02:46.405Z,8.77
2019-04-16T02:05:14.998Z,8.43
2019-04-16T02:07:43.590Z,8.67
2019-04-16T02:10:12.202Z,8.40
2019-04-16T02:12:43.867Z,8.70
2019-04-16T02:15:12.411Z,8.40
2019-04-16T02:17:41.297Z,7.80
2019-04-16T02:20:09.821Z,8.37
2019-04-16T02:22:38.353Z,9.20
2019-04-16T02:25:07.104Z,8.53
2019-04-16T02:27:35.626Z,9.10
2019-04-16T02:30:05.691Z,9.53
2019-04-16T02:32:34.559Z,8.87
2019-04-16T02:35:03.367Z,9.57
2019-04-16T02:37:35.437Z,9.40
2019-04-16T02:40:03.005Z,9.07
2019-04-16T02:42:32.189Z,9.57
2019-04-16T02:45:01.045Z,9.27
2019-04-16T02:47:29.960Z,9.93
2019-04-16T02:49:59.768Z,10.13
2019-04-16T02:52:51.101Z,9.93
2019-04-16T02:55:43.866Z,10.60
2019-04-16T02:58:20.212Z,11.10
2019-04-16T03:01:06.947Z,9.83
2019-04-16T03:03:40.377Z,10.37
2019-04-16T03:06:08.888Z,10.77
2019-04-16T03:08:37.387Z,10.83
2019-04-16T03:11:06.159Z,9.87
2019-04-16T03:13:34.742Z,10.40
2019-04-16T03:16:37.687Z,10.27
2019-04-16T03:19:08.662Z,10.67
2019-04-16T03:21:37.064Z,10.33
2019-04-16T03:24:09.058Z,10.40
2019-04-16T03:26:36.158Z,10.50
2019-04-16T03:29:04.907Z,10.43
2019-04-16T03:31:33.626Z,10.17
2019-04-16T03:34:02.264Z,9.87
2019-04-16T03:36:30.874Z,10.53
2019-04-16T03:38:59.585Z,10.30
2019-04-16T03:41:28.210Z,9.67
2019-04-16T03:43:56.702Z,11.40
2019-04-16T03:46:25.427Z,10.50
2019-04-16T03:48:56.177Z,11.30
2019-04-16T03:51:24.929Z,10.90
2019-04-16T03:53:53.417Z,10.53
2019-04-16T03:56:22.026Z,10.53
2019-04-16T03:58:50.705Z,10.87
2019-04-16T04:01:19.243Z,12.33
2019-04-16T04:03:47.971Z,15.37
2019-04-16T04:06:16.668Z,15.83
2019-04-16T04:08:47.924Z,16.73
2019-04-16T04:11:15.605Z,14.30
2019-04-16T04:13:44.018Z,13.73
2019-04-16T04:16:12.618Z,17.07
2019-04-16T04:18:43.274Z,13.53
2019-04-16T04:21:11.673Z,13.10
2019-04-16T04:23:40.309Z,14.33
2019-04-16T04:26:10.182Z,12.83
2019-04-16T04:28:39.063Z,13.67
2019-04-16T04:31:07.663Z,13.13
2019-04-16T04:33:40.947Z,12.73
2019-04-16T04:36:08.771Z,11.07
2019-04-16T04:38:38.462Z,11.63
2019-04-16T04:41:08.022Z,11.23
2019-04-16T04:43:36.978Z,10.50
2019-04-16T04:46:05.587Z,12.47
2019-04-16T04:48:34.189Z,11.50
2019-04-16T04:51:06.945Z,11.07
2019-04-16T04:53:33.157Z,13.00
2019-04-16T04:56:01.682Z,14.77
2019-04-16T04:58:33.784Z,14.40
2019-04-16T05:01:00.608Z,15.83
2019-04-16T05:03:51.376Z,14.17
2019-04-16T05:06:27.839Z,12.63
2019-04-16T05:08:57.622Z,11.20
2019-04-16T05:11:26.977Z,11.60
2019-04-16T05:13:56.465Z,11.73
2019-04-16T05:16:25.662Z,11.57
2019-04-16T05:18:54.506Z,12.90
2019-04-16T05:21:23.065Z,12.43
2019-04-16T05:23:57.215Z,12.83
2019-04-16T05:26:22.019Z,12.87
2019-04-16T05:28:50.634Z,12.53
2019-04-16T05:31:24.303Z,12.57
2019-04-16T05:33:49.514Z,10.83
2019-04-16T05:36:21.035Z,11.07
2019-04-16T05:38:48.772Z,10.93
2019-04-16T05:41:21.201Z,10.90
2019-04-16T05:43:47.834Z,10.40
2019-04-16T05:46:16.435Z,10.97
2019-04-16T05:48:45.149Z,9.23
2019-04-16T05:51:13.802Z,9.23
2019-04-16T05:53:46.174Z,9.43
2019-04-16T05:56:23.949Z,9.40
2019-04-16T05:58:51.936Z,9.80
2019-04-16T06:01:29.653Z,8.73
2019-04-16T06:03:58.065Z,9.83
2019-04-16T06:06:28.760Z,9.20
2019-04-16T06:08:57.294Z,9.37
2019-04-16T06:11:29.269Z,11.03
2019-04-16T06:14:07.678Z,9.30
2019-04-16T06:17:01.197Z,9.67
2019-04-16T06:20:04.500Z,8.20
2019-04-16T06:22:52.654Z,8.07
2019-04-16T06:25:41.010Z,9.10
2019-04-16T06:28:15.089Z,8.53
2019-04-16T06:30:52.019Z,9.23
2019-04-16T06:33:31.121Z,8.53
2019-04-16T06:36:24.388Z,9.07
2019-04-16T06:39:12.597Z,8.23
2019-04-16T06:42:09.728Z,8.80
2019-04-16T06:44:58.048Z,8.03
2019-04-16T06:47:45.822Z,6.83
2019-04-16T06:50:40.574Z,7.50
2019-04-16T06:53:30.725Z,7.30
2019-04-16T06:56:27.605Z,8.30
2019-04-16T06:59:17.915Z,9.20
2019-04-16T07:02:17.991Z,7.83
2019-04-16T07:05:08.738Z,7.33
2019-04-16T07:08:09.188Z,7.53
2019-04-16T07:10:47.417Z,8.13
2019-04-16T07:13:15.944Z,20.50
2019-04-16T07:15:44.603Z,8.87
2019-04-16T07:18:13.231Z,7.50
2019-04-16T07:20:42.259Z,7.83
2019-04-16T07:23:12.434Z,8.43
2019-04-16T07:25:43.115Z,8.60
2019-04-16T07:28:26.637Z,9.03
2019-04-16T07:31:13.246Z,7.93
2019-04-16T07:34:00.074Z,8.97
2019-04-16T07:36:46.468Z,8.60
2019-04-16T07:39:36.937Z,9.10
2019-04-16T07:42:12.613Z,9.07
2019-04-16T07:45:10.810Z,8.80
2019-04-16T07:47:51.681Z,8.17
2019-04-16T07:50:54.874Z,7.67
2019-04-16T07:53:49.050Z,8.10
2019-04-16T07:56:23.144Z,8.43
2019-04-16T07:58:52.276Z,7.00
2019-04-16T08:01:20.785Z,7.07
2019-04-16T08:03:49.302Z,7.40
2019-04-16T08:06:17.941Z,8.57
2019-04-16T08:08:46.498Z,7.93
2019-04-16T08:11:15.083Z,8.10
2019-04-16T08:13:44.077Z,8.87
2019-04-16T08:16:12.711Z,8.37
2019-04-16T08:18:49.070Z,8.97
2019-04-16T08:21:17.692Z,9.00
2019-04-16T08:23:52.906Z,8.00
2019-04-16T08:26:20.249Z,8.83
2019-04-16T08:28:48.752Z,8.27
2019-04-16T08:31:23.362Z,8.20
2019-04-16T08:33:52.091Z,8.13
2019-04-16T08:36:20.620Z,8.07
2019-04-16T08:38:49.323Z,8.93
2019-04-16T08:41:21.334Z,7.93
2019-04-16T08:43:48.444Z,9.03
2019-04-16T08:46:17.024Z,8.17
2019-04-16T08:48:48.879Z,8.77
2019-04-16T08:51:29.330Z,9.33
2019-04-16T08:53:47.291Z,6.93
2019-04-16T08:56:15.897Z,7.80
2019-04-16T08:58:44.739Z,7.93
2019-04-16T09:01:23.287Z,7.60
2019-04-16T09:03:49.026Z,7.50
2019-04-16T09:06:17.648Z,7.67
2019-04-16T09:09:11.188Z,8.53
2019-04-16T09:11:29.159Z,8.60
2019-04-16T09:14:00.507Z,8.00
2019-04-16T09:16:30.284Z,8.27
2019-04-16T09:19:07.869Z,7.93
2019-04-16T09:21:36.393Z,7.37
2019-04-16T09:24:25.592Z,8.07
2019-04-16T09:27:19.925Z,7.70
2019-04-16T09:30:17.780Z,7.67
2019-04-16T09:32:49.236Z,9.00
2019-04-16T09:35:29.725Z,8.27
2019-04-16T09:38:18.076Z,7.10
2019-04-16T09:41:21.861Z,8.23
2019-04-16T09:43:56.852Z,8.30
2019-04-16T09:46:48.755Z,8.30
2019-04-16T09:48:54.767Z,8.03
2019-04-16T09:51:25.375Z,6.30
2019-04-16T09:53:53.868Z,7.70
2019-04-16T09:56:31.813Z,6.70
2019-04-16T09:59:03.641Z,7.83
2019-04-16T10:01:38.457Z,8.00
2019-04-16T10:04:08.384Z,8.20
2019-04-16T10:06:37.006Z,6.33
2019-04-16T10:09:06.021Z,7.50
2019-04-16T10:11:35.872Z,8.00
2019-04-16T10:14:05.381Z,7.83
2019-04-16T10:16:34.072Z,7.40
2019-04-16T10:19:07.639Z,8.10
2019-04-16T10:21:33.054Z,9.50
2019-04-16T10:24:19.721Z,9.97
2019-04-16T10:26:51.146Z,6.87
2019-04-16T10:29:19.871Z,8.37
2019-04-16T10:31:48.580Z,6.67
2019-04-16T10:34:17.244Z,7.17
2019-04-16T10:36:45.981Z,7.03
2019-04-16T10:39:46.354Z,6.97
2019-04-16T10:42:46.866Z,6.70
2019-04-16T10:45:36.093Z,6.70
2019-04-16T10:48:42.448Z,6.93
2019-04-16T10:51:20.166Z,6.80
2019-04-16T10:54:06.992Z,6.80
2019-04-16T10:56:56.792Z,6.63
2019-04-16T10:59:58.877Z,6.27
2019-04-16T11:02:35.118Z,6.83
2019-04-16T11:05:20.064Z,6.63
2019-04-16T11:07:49.360Z,6.70
2019-04-16T11:10:18.165Z,6.80
2019-04-16T11:12:47.005Z,5.87
2019-04-16T11:15:19.869Z,6.10
2019-04-16T11:17:48.761Z,6.57
2019-04-16T11:20:17.759Z,7.20
2019-04-16T11:22:46.442Z,6.53
2019-04-16T11:25:16.248Z,6.57
2019-04-16T11:27:44.859Z,6.33
2019-04-16T11:30:30.232Z,6.07
2019-04-16T11:32:59.436Z,7.50
2019-04-16T11:35:28.170Z,6.67
2019-04-16T11:37:56.816Z,6.47
2019-04-16T11:40:25.514Z,6.07
2019-04-16T11:42:54.275Z,6.47
2019-04-16T11:45:23.513Z,6.10
2019-04-16T11:47:52.028Z,6.50
2019-04-16T11:50:20.719Z,6.47
2019-04-16T11:52:49.373Z,6.43
2019-04-16T11:55:18.011Z,6.23
2019-04-16T11:57:46.991Z,6.20
2019-04-16T12:00:21.270Z,5.90
2019-04-16T12:03:07.054Z,5.83
2019-04-16T12:05:57.930Z,5.97
2019-04-16T12:08:35.203Z,6.20
2019-04-16T12:11:22.431Z,6.60
2019-04-16T12:14:10.733Z,7.20
2019-04-16T12:16:47.929Z,6.00
2019-04-16T12:19:47.977Z,6.30
2019-04-16T12:22:26.824Z,7.13
2019-04-16T12:25:29.281Z,6.43
2019-04-16T12:28:28.859Z,5.30
2019-04-16T12:31:05.904Z,5.63
2019-04-16T12:33:56.375Z,5.70
2019-04-16T12:36:56.821Z,22.63
2019-04-16T12:39:48.029Z,37.37
2019-04-16T12:42:41.233Z,10.00
2019-04-16T12:45:32.026Z,6.73
2019-04-16T12:48:11.426Z,6.10
2019-04-16T12:51:05.464Z,5.50
2019-04-16T12:53:54.232Z,5.80
2019-04-16T12:56:45.335Z,5.80
2019-04-16T12:59:32.260Z,6.17
2019-04-16T13:02:19.171Z,5.40
2019-04-16T13:05:22.060Z,6.03
2019-04-16T13:08:08.902Z,6.10
2019-04-16T13:11:08.142Z,6.07
2019-04-16T13:13:55.841Z,6.00
2019-04-16T13:16:40.350Z,6.50
2019-04-16T13:19:27.762Z,6.03
2019-04-16T13:21:59.890Z,5.63
2019-04-16T13:24:40.162Z,5.20
2019-04-16T13:27:21.398Z,5.50
2019-04-16T13:29:50.176Z,5.77
2019-04-16T13:32:19.242Z,5.63
2019-04-16T13:34:47.830Z,5.23
2019-04-16T13:37:16.648Z,5.53
2019-04-16T13:40:10.958Z,4.87
2019-04-16T13:42:39.800Z,5.23
2019-04-16T13:45:26.982Z,5.63
2019-04-16T13:47:56.192Z,5.70
2019-04-16T13:50:28.931Z,5.90
2019-04-16T13:53:03.357Z,5.87
2019-04-16T13:55:54.206Z,5.90
2019-04-16T13:58:35.509Z,5.73
2019-04-16T14:01:25.733Z,5.83
2019-04-16T14:03:56.372Z,5.77
2019-04-16T14:06:24.906Z,5.20
2019-04-16T14:08:53.731Z,5.77
2019-04-16T14:11:22.455Z,5.10
2019-04-16T14:13:50.968Z,4.97
2019-04-16T14:16:19.494Z,5.27
2019-04-16T14:18:48.331Z,5.57
2019-04-16T14:21:16.896Z,5.87
2019-04-16T14:23:45.589Z,6.33
2019-04-16T14:26:14.427Z,6.00
2019-04-16T14:28:51.892Z,5.83
2019-04-16T14:31:16.932Z,6.00
2019-04-16T14:34:06.520Z,6.03
2019-04-16T14:36:35.158Z,5.97
2019-04-16T14:39:17.383Z,6.70
2019-04-16T14:41:50.130Z,6.33
2019-04-16T14:44:17.864Z,6.10
2019-04-16T14:46:46.873Z,18.73
2019-04-16T14:49:18.317Z,6.70
2019-04-16T14:51:45.999Z,6.53
2019-04-16T14:54:24.342Z,6.63
2019-04-16T14:56:55.238Z,7.03
2019-04-16T14:59:43.592Z,6.37
2019-04-16T15:02:32.003Z,7.43
2019-04-16T15:05:08.881Z,7.17
2019-04-16T15:07:44.085Z,5.87
2019-04-16T15:10:25.730Z,5.33
2019-04-16T15:13:29.029Z,4.83
2019-04-16T15:16:21.209Z,5.40
2019-04-16T15:19:05.334Z,5.27
2019-04-16T15:21:53.500Z,6.10
2019-04-16T15:24:32.767Z,6.00
2019-04-16T15:27:19.739Z,5.93
2019-04-16T15:29:56.486Z,5.43
2019-04-16T15:32:42.250Z,5.60
2019-04-16T15:35:15.044Z,5.70
2019-04-16T15:37:50.547Z,5.37
2019-04-16T15:40:31.005Z,8.00
2019-04-16T15:43:19.735Z,9.40
2019-04-16T15:46:25.031Z,7.63
2019-04-16T15:48:55.755Z,8.17
2019-04-16T15:51:56.249Z,7.87
2019-04-16T15:54:39.168Z,7.80
2019-04-16T15:57:25.904Z,6.40
2019-04-16T16:00:08.301Z,5.57
2019-04-16T16:03:02.324Z,5.57
2019-04-16T16:05:34.578Z,4.73
2019-04-16T16:08:13.389Z,5.00
2019-04-16T16:10:47.296Z,4.90
2019-04-16T16:13:15.973Z,5.00
2019-04-16T16:15:44.638Z,5.10
2019-04-16T16:18:13.418Z,7.07
2019-04-16T16:20:42.003Z,10.60
2019-04-16T16:23:10.723Z,11.17
2019-04-16T16:25:41.519Z,10.00
2019-04-16T16:28:09.804Z,8.73
2019-04-16T16:30:38.775Z,7.43
2019-04-16T16:33:07.495Z,6.63
2019-04-16T16:35:36.293Z,5.23
2019-04-16T16:38:04.917Z,4.40
2019-04-16T16:40:33.769Z,4.80
2019-04-16T16:43:07.045Z,4.77
2019-04-16T16:45:53.166Z,5.27
2019-04-16T16:48:23.132Z,6.30
2019-04-16T16:50:51.971Z,5.40
2019-04-16T16:53:26.338Z,5.03
2019-04-16T16:55:58.730Z,5.67
2019-04-16T16:58:39.612Z,6.60
2019-04-16T17:01:33.361Z,6.40
2019-04-16T17:04:08.593Z,7.57
2019-04-16T17:06:37.098Z,8.57
2019-04-16T17:09:08.313Z,9.30
2019-04-16T17:11:36.949Z,11.77
2019-04-16T17:14:05.588Z,13.43
2019-04-16T17:16:34.391Z,16.73
2019-04-16T17:19:02.987Z,18.07
2019-04-16T17:21:31.714Z,22.20
2019-04-16T17:24:00.547Z,23.37
2019-04-16T17:26:29.653Z,16.13
2019-04-16T17:28:58.214Z,14.27
2019-04-16T17:31:27.074Z,13.07
2019-04-16T17:33:55.813Z,13.10
2019-04-16T17:36:24.443Z,10.80
2019-04-16T17:38:53.867Z,11.10
2019-04-16T17:41:26.221Z,11.90
2019-04-16T17:44:19.968Z,14.63
2019-04-16T17:47:03.570Z,18.20
2019-04-16T17:49:52.851Z,22.20
2019-04-16T17:52:47.864Z,19.80
2019-04-16T17:55:36.432Z,18.00
2019-04-16T17:58:10.490Z,14.57
2019-04-16T18:01:04.265Z,16.57
2019-04-16T18:03:51.364Z,10.87
2019-04-16T18:06:35.144Z,8.23
2019-04-16T18:09:23.771Z,9.53
2019-04-16T18:12:08.764Z,6.67
2019-04-16T18:14:55.271Z,6.57
2019-04-16T18:17:46.077Z,6.20
2019-04-16T18:20:30.613Z,5.77
2019-04-16T18:23:14.190Z,5.03
2019-04-16T18:26:00.856Z,4.43
2019-04-16T18:28:34.153Z,5.00
2019-04-16T18:31:25.159Z,5.67
2019-04-16T18:34:10.078Z,6.07
2019-04-16T18:36:44.942Z,6.83
2019-04-16T18:39:37.177Z,7.10
2019-04-16T18:42:13.742Z,6.00
2019-04-16T18:44:59.949Z,5.30
2019-04-16T18:48:01.337Z,5.27
2019-04-16T18:50:23.618Z,6.70
2019-04-16T18:52:52.185Z,9.20
2019-04-16T18:55:20.797Z,7.47
2019-04-16T18:57:49.510Z,8.73
2019-04-16T19:00:46.864Z,9.47
2019-04-16T19:03:18.170Z,9.27
2019-04-16T19:05:46.934Z,9.67
2019-04-16T19:08:15.533Z,10.70
2019-04-16T19:10:44.767Z,10.60
2019-04-16T19:13:14.155Z,9.63
2019-04-16T19:15:42.779Z,10.93
2019-04-16T19:18:19.538Z,10.27
2019-04-16T19:20:42.005Z,11.50
2019-04-16T19:23:10.644Z,11.63
2019-04-16T19:25:39.248Z,12.97
2019-04-16T19:28:07.835Z,14.00
2019-04-16T19:30:36.651Z,12.73
2019-04-16T19:33:05.574Z,12.93
2019-04-16T19:35:34.384Z,11.67
2019-04-16T19:38:06.477Z,8.33
2019-04-16T19:40:33.785Z,8.17
2019-04-16T19:43:03.497Z,10.60
2019-04-16T19:45:32.202Z,8.17
2019-04-16T19:48:02.135Z,6.57
2019-04-16T19:50:36.088Z,6.90
2019-04-16T19:53:02.040Z,6.70
2019-04-16T19:55:31.241Z,6.43
2019-04-16T19:58:00.054Z,6.60
2019-04-16T20:00:28.746Z,6.67
2019-04-16T20:02:57.512Z,6.20
2019-04-16T20:05:28.756Z,6.00
2019-04-16T20:07:57.592Z,7.63
2019-04-16T20:10:26.228Z,7.03
2019-04-16T20:12:57.527Z,7.53
2019-04-16T20:15:25.774Z,7.07
2019-04-16T20:17:54.488Z,7.97
2019-04-16T20:20:23.093Z,8.37
2019-04-16T20:22:52.125Z,7.30
2019-04-16T20:25:20.816Z,7.17
2019-04-16T20:27:49.561Z,7.50
2019-04-16T20:30:23.034Z,7.47
2019-04-16T20:32:48.742Z,7.70
2019-04-16T20:35:18.789Z,8.30
2019-04-16T20:37:50.456Z,7.83
2019-04-16T20:40:18.743Z,7.70
2019-04-16T20:42:47.704Z,7.97
2019-04-16T20:45:16.310Z,7.33
2019-04-16T20:47:45.048Z,8.77
2019-04-16T20:50:13.654Z,9.03
2019-04-16T20:52:42.232Z,8.67
2019-04-16T20:55:15.690Z,8.03
2019-04-16T20:57:41.758Z,8.60
2019-04-16T21:00:12.649Z,8.63
2019-04-16T21:02:41.129Z,8.10
2019-04-16T21:05:21.933Z,7.93
2019-04-16T21:07:43.900Z,7.17
2019-04-16T21:10:11.783Z,7.40
2019-04-16T21:12:45.030Z,7.27
2019-04-16T21:15:11.131Z,7.27
2019-04-16T21:17:39.851Z,7.90
2019-04-16T21:20:08.606Z,8.27
2019-04-16T21:22:37.209Z,8.17
2019-04-16T21:25:06.015Z,8.57
2019-04-16T21:27:43.562Z,7.07
2019-04-16T21:30:13.427Z,7.77
2019-04-16T21:33:05.167Z,8.10
2019-04-16T21:35:36.676Z,8.23
2019-04-16T21:38:16.984Z,9.30
2019-04-16T21:40:45.612Z,12.13
2019-04-16T21:43:14.202Z,15.30
2019-04-16T21:45:45.606Z,29.37
2019-04-16T21:48:13.208Z,16.87
2019-04-16T21:50:44.518Z,14.10
2019-04-16T21:53:12.464Z,13.33
2019-04-16T21:55:41.078Z,12.67
2019-04-16T21:58:09.662Z,12.23
2019-04-16T22:01:06.652Z,11.83
2019-04-16T22:03:41.761Z,9.97
2019-04-16T22:06:06.259Z,10.40
2019-04-16T22:08:34.879Z,10.87
2019-04-16T22:11:03.402Z,10.77
2019-04-16T22:13:31.984Z,10.67
2019-04-16T22:16:00.474Z,10.67
2019-04-16T22:18:28.956Z,10.77
2019-04-16T22:20:57.738Z,10.77
2019-04-16T22:23:26.278Z,10.73
2019-04-16T22:25:57.056Z,10.73
2019-04-16T22:28:25.326Z,10.70
2019-04-16T22:30:53.930Z,11.30
2019-04-16T22:33:22.526Z,10.60
2019-04-16T22:35:51.035Z,11.33
2019-04-16T22:38:19.830Z,10.40
2019-04-16T22:40:56.961Z,10.30
2019-04-16T22:43:54.246Z,11.47
2019-04-16T22:46:43.865Z,10.40
2019-04-16T22:49:12.417Z,10.60
2019-04-16T22:51:43.237Z,9.23
2019-04-16T22:54:11.458Z,9.10
2019-04-16T22:57:05.299Z,9.50
2019-04-16T22:59:39.044Z,9.70
2019-04-16T23:02:09.965Z,9.63
2019-04-16T23:04:38.352Z,9.23
2019-04-16T23:07:08.335Z,9.70
2019-04-16T23:09:37.306Z,8.93
2019-04-16T23:12:05.933Z,9.70
2019-04-16T23:14:35.597Z,9.27
2019-04-16T23:17:04.348Z,8.00
2019-04-16T23:19:32.845Z,9.70
2019-04-16T23:22:01.462Z,9.13
2019-04-16T23:24:30.053Z,9.43
2019-04-16T23:27:04.518Z,8.57
2019-04-16T23:29:29.149Z,8.93
2019-04-16T23:31:57.741Z,9.27
2019-04-16T23:34:26.247Z,9.93
2019-04-16T23:36:54.839Z,9.97
2019-04-16T23:39:23.526Z,8.83
2019-04-16T23:41:52.018Z,8.77
2019-04-16T23:44:42.627Z,8.43
2019-04-16T23:47:36.496Z,8.33
2019-04-16T23:50:44.337Z,8.70
2019-04-16T23:53:26.856Z,9.43
2019-04-16T23:56:08.065Z,9.37
2019-04-16T23:59:02.659Z,9.47
